sensor_id;sensor_type;location;lat;lon;timestamp;P1;durP1;ratioP1;P2;durP2;ratioP2
31594;SDS011;18200;48.726;8.892;2022-10-19T00:00:46;12.23;;;7.35;;
31594;SDS011;18200;48.726;8.892;2022-10-19T00:04:47;17.20;;;7.75;;
31594;SDS011;18200;48.726;8.892;2022-10-19T00:08:47;14.77;;;7.85;;
31594;SDS011;18200;48.726;8.892;2022-10-19T00:12:48;16.38;;;7.85;;
31594;SDS011;18200;48.726;8.892;2022-10-19T00:16:50;20.02;;;8.50;;
31594;SDS011;18200;48.726;8.892;2022-10-19T00:20:51;11.95;;;7.95;;
31594;SDS011;18200;48.726;8.892;2022-10-19T00:24:51;20.33;;;9.65;;
31594;SDS011;18200;48.726;8.892;2022-10-19T00:28:52;15.45;;;9.02;;
31594;SDS011;18200;48.726;8.892;2022-10-19T00:32:54;14.32;;;8.10;;
31594;SDS011;18200;48.726;8.892;2022-10-19T00:36:54;15.68;;;8.35;;
31594;SDS011;18200;48.726;8.892;2022-10-19T00:40:55;14.70;;;7.35;;
31594;SDS011;18200;48.726;8.892;2022-10-19T00:44:57;23.40;;;8.95;;
31594;SDS011;18200;48.726;8.892;2022-10-19T00:53:19;18.45;;;9.05;;
31594;SDS011;18200;48.726;8.892;2022-10-19T00:57:20;15.05;;;8.40;;
31594;SDS011;18200;48.726;8.892;2022-10-19T01:01:22;15.65;;;9.18;;
31594;SDS011;18200;48.726;8.892;2022-10-19T01:05:24;17.23;;;9.63;;
31594;SDS011;18200;48.726;8.892;2022-10-19T01:09:26;17.30;;;10.18;;
31594;SDS011;18200;48.726;8.892;2022-10-19T01:13:34;16.85;;;8.38;;
31594;SDS011;18200;48.726;8.892;2022-10-19T01:31:26;12.02;;;7.97;;
31594;SDS011;18200;48.726;8.892;2022-10-19T01:36:05;18.52;;;9.65;;
31594;SDS011;18200;48.726;8.892;2022-10-19T01:40:34;18.02;;;9.57;;
31594;SDS011;18200;48.726;8.892;2022-10-19T01:48:55;40.90;;;10.82;;
31594;SDS011;18200;48.726;8.892;2022-10-19T01:53:02;17.58;;;10.15;;
31594;SDS011;18200;48.726;8.892;2022-10-19T01:57:06;38.80;;;10.85;;
31594;SDS011;18200;48.726;8.892;2022-10-19T02:01:09;15.13;;;9.85;;
31594;SDS011;18200;48.726;8.892;2022-10-19T02:05:14;18.48;;;10.93;;
31594;SDS011;18200;48.726;8.892;2022-10-19T02:09:18;18.05;;;10.25;;
31594;SDS011;18200;48.726;8.892;2022-10-19T02:13:19;15.90;;;9.50;;
31594;SDS011;18200;48.726;8.892;2022-10-19T02:17:23;16.58;;;9.70;;
31594;SDS011;18200;48.726;8.892;2022-10-19T02:21:27;16.73;;;9.95;;
31594;SDS011;18200;48.726;8.892;2022-10-19T02:25:27;42.13;;;10.13;;
31594;SDS011;18200;48.726;8.892;2022-10-19T02:29:28;14.75;;;9.35;;
31594;SDS011;18200;48.726;8.892;2022-10-19T02:33:28;18.13;;;10.23;;
31594;SDS011;18200;48.726;8.892;2022-10-19T02:37:29;15.27;;;10.02;;
31594;SDS011;18200;48.726;8.892;2022-10-19T02:45:42;28.00;;;11.27;;
31594;SDS011;18200;48.726;8.892;2022-10-19T02:49:48;23.00;;;11.23;;
31594;SDS011;18200;48.726;8.892;2022-10-19T02:53:48;61.15;;;12.95;;
31594;SDS011;18200;48.726;8.892;2022-10-19T02:57:49;53.17;;;12.80;;
31594;SDS011;18200;48.726;8.892;2022-10-19T03:01:49;18.58;;;11.98;;
31594;SDS011;18200;48.726;8.892;2022-10-19T03:05:50;25.42;;;14.05;;
31594;SDS011;18200;48.726;8.892;2022-10-19T03:09:51;19.80;;;11.82;;
31594;SDS011;18200;48.726;8.892;2022-10-19T03:13:51;19.65;;;11.05;;
31594;SDS011;18200;48.726;8.892;2022-10-19T03:17:52;20.13;;;11.45;;
31594;SDS011;18200;48.726;8.892;2022-10-19T03:21:52;20.98;;;11.52;;
31594;SDS011;18200;48.726;8.892;2022-10-19T03:25:53;26.08;;;11.32;;
31594;SDS011;18200;48.726;8.892;2022-10-19T03:29:53;22.85;;;11.70;;
31594;SDS011;18200;48.726;8.892;2022-10-19T03:33:54;31.65;;;13.23;;
31594;SDS011;18200;48.726;8.892;2022-10-19T03:37:54;22.73;;;12.73;;
31594;SDS011;18200;48.726;8.892;2022-10-19T03:41:55;26.02;;;11.75;;
31594;SDS011;18200;48.726;8.892;2022-10-19T03:45:55;29.00;;;13.80;;
31594;SDS011;18200;48.726;8.892;2022-10-19T03:49:55;48.60;;;26.40;;
31594;SDS011;18200;48.726;8.892;2022-10-19T03:54:00;33.88;;;18.33;;
31594;SDS011;18200;48.726;8.892;2022-10-19T03:58:02;36.60;;;15.75;;
31594;SDS011;18200;48.726;8.892;2022-10-19T04:02:03;40.38;;;16.88;;
31594;SDS011;18200;48.726;8.892;2022-10-19T04:06:05;40.90;;;17.00;;
31594;SDS011;18200;48.726;8.892;2022-10-19T04:10:07;41.35;;;15.43;;
31594;SDS011;18200;48.726;8.892;2022-10-19T04:14:09;41.05;;;15.82;;
31594;SDS011;18200;48.726;8.892;2022-10-19T04:18:11;34.07;;;15.17;;
31594;SDS011;18200;48.726;8.892;2022-10-19T04:22:11;41.50;;;15.25;;
31594;SDS011;18200;48.726;8.892;2022-10-19T04:26:12;45.03;;;15.43;;
31594;SDS011;18200;48.726;8.892;2022-10-19T04:30:12;41.58;;;15.95;;
31594;SDS011;18200;48.726;8.892;2022-10-19T04:34:12;50.35;;;17.08;;
31594;SDS011;18200;48.726;8.892;2022-10-19T04:38:13;39.42;;;14.93;;
31594;SDS011;18200;48.726;8.892;2022-10-19T04:42:13;41.25;;;14.45;;
31594;SDS011;18200;48.726;8.892;2022-10-19T04:46:17;36.25;;;14.75;;
31594;SDS011;18200;48.726;8.892;2022-10-19T04:50:18;45.65;;;15.63;;
31594;SDS011;18200;48.726;8.892;2022-10-19T04:54:18;53.63;;;16.45;;
31594;SDS011;18200;48.726;8.892;2022-10-19T04:58:19;55.90;;;17.70;;
31594;SDS011;18200;48.726;8.892;2022-10-19T05:02:19;52.10;;;17.70;;
31594;SDS011;18200;48.726;8.892;2022-10-19T05:06:20;53.08;;;17.52;;
31594;SDS011;18200;48.726;8.892;2022-10-19T05:10:20;51.88;;;18.17;;
31594;SDS011;18200;48.726;8.892;2022-10-19T05:14:20;54.97;;;17.63;;
31594;SDS011;18200;48.726;8.892;2022-10-19T05:18:21;45.00;;;16.75;;
31594;SDS011;18200;48.726;8.892;2022-10-19T05:22:21;46.88;;;18.35;;
31594;SDS011;18200;48.726;8.892;2022-10-19T05:26:22;48.47;;;16.65;;
31594;SDS011;18200;48.726;8.892;2022-10-19T05:30:25;48.50;;;17.33;;
31594;SDS011;18200;48.726;8.892;2022-10-19T05:34:26;39.33;;;16.05;;
31594;SDS011;18200;48.726;8.892;2022-10-19T05:38:28;37.13;;;14.90;;
31594;SDS011;18200;48.726;8.892;2022-10-19T05:42:28;51.08;;;17.63;;
31594;SDS011;18200;48.726;8.892;2022-10-19T05:46:29;50.90;;;16.08;;
31594;SDS011;18200;48.726;8.892;2022-10-19T05:50:31;41.05;;;14.57;;
31594;SDS011;18200;48.726;8.892;2022-10-19T05:54:31;52.55;;;18.45;;
31594;SDS011;18200;48.726;8.892;2022-10-19T05:58:32;47.20;;;16.40;;
31594;SDS011;18200;48.726;8.892;2022-10-19T06:02:33;36.95;;;13.98;;
31594;SDS011;18200;48.726;8.892;2022-10-19T06:06:33;51.47;;;17.77;;
31594;SDS011;18200;48.726;8.892;2022-10-19T06:10:33;56.30;;;16.98;;
31594;SDS011;18200;48.726;8.892;2022-10-19T06:14:34;50.72;;;15.80;;
31594;SDS011;18200;48.726;8.892;2022-10-19T06:18:35;44.97;;;15.93;;
31594;SDS011;18200;48.726;8.892;2022-10-19T06:22:36;49.70;;;16.52;;
31594;SDS011;18200;48.726;8.892;2022-10-19T06:26:36;46.92;;;15.70;;
31594;SDS011;18200;48.726;8.892;2022-10-19T06:30:37;44.10;;;16.05;;
31594;SDS011;18200;48.726;8.892;2022-10-19T06:34:41;46.65;;;16.60;;
31594;SDS011;18200;48.726;8.892;2022-10-19T06:38:41;40.05;;;15.80;;
31594;SDS011;18200;48.726;8.892;2022-10-19T06:42:42;46.40;;;16.52;;
31594;SDS011;18200;48.726;8.892;2022-10-19T06:46:43;42.90;;;16.75;;
31594;SDS011;18200;48.726;8.892;2022-10-19T06:50:43;39.72;;;15.27;;
31594;SDS011;18200;48.726;8.892;2022-10-19T06:54:44;38.10;;;14.80;;
31594;SDS011;18200;48.726;8.892;2022-10-19T06:58:44;37.88;;;15.05;;
31594;SDS011;18200;48.726;8.892;2022-10-19T07:02:45;40.67;;;14.77;;
31594;SDS011;18200;48.726;8.892;2022-10-19T07:06:45;35.55;;;15.32;;
31594;SDS011;18200;48.726;8.892;2022-10-19T07:10:52;39.08;;;15.63;;
31594;SDS011;18200;48.726;8.892;2022-10-19T07:14:57;35.17;;;14.73;;
31594;SDS011;18200;48.726;8.892;2022-10-19T07:18:58;37.92;;;14.60;;
31594;SDS011;18200;48.726;8.892;2022-10-19T07:22:59;51.13;;;15.85;;
31594;SDS011;18200;48.726;8.892;2022-10-19T07:26:59;34.33;;;14.15;;
31594;SDS011;18200;48.726;8.892;2022-10-19T07:31:06;33.47;;;14.77;;
31594;SDS011;18200;48.726;8.892;2022-10-19T07:35:09;38.92;;;16.10;;
31594;SDS011;18200;48.726;8.892;2022-10-19T07:39:10;42.55;;;15.85;;
31594;SDS011;18200;48.726;8.892;2022-10-19T07:43:11;46.97;;;17.08;;
31594;SDS011;18200;48.726;8.892;2022-10-19T07:47:11;53.42;;;18.83;;
31594;SDS011;18200;48.726;8.892;2022-10-19T07:51:12;65.93;;;20.50;;
31594;SDS011;18200;48.726;8.892;2022-10-19T07:55:14;56.08;;;17.98;;
31594;SDS011;18200;48.726;8.892;2022-10-19T07:59:15;79.47;;;24.65;;
31594;SDS011;18200;48.726;8.892;2022-10-19T08:03:16;65.43;;;22.48;;
31594;SDS011;18200;48.726;8.892;2022-10-19T08:07:16;64.43;;;21.60;;
31594;SDS011;18200;48.726;8.892;2022-10-19T08:11:18;72.93;;;22.67;;
31594;SDS011;18200;48.726;8.892;2022-10-19T08:15:21;67.32;;;23.25;;
31594;SDS011;18200;48.726;8.892;2022-10-19T08:19:21;67.07;;;23.50;;
31594;SDS011;18200;48.726;8.892;2022-10-19T08:23:23;64.72;;;23.10;;
31594;SDS011;18200;48.726;8.892;2022-10-19T08:27:23;57.30;;;21.77;;
31594;SDS011;18200;48.726;8.892;2022-10-19T08:31:24;55.30;;;22.55;;
31594;SDS011;18200;48.726;8.892;2022-10-19T08:35:24;47.45;;;20.55;;
31594;SDS011;18200;48.726;8.892;2022-10-19T08:39:24;46.80;;;21.30;;
31594;SDS011;18200;48.726;8.892;2022-10-19T08:43:29;43.50;;;21.67;;
31594;SDS011;18200;48.726;8.892;2022-10-19T08:47:40;69.75;;;35.85;;
31594;SDS011;18200;48.726;8.892;2022-10-19T08:51:50;41.45;;;19.60;;
31594;SDS011;18200;48.726;8.892;2022-10-19T08:56:01;28.80;;;15.77;;
31594;SDS011;18200;48.726;8.892;2022-10-19T09:00:13;24.33;;;14.27;;
31594;SDS011;18200;48.726;8.892;2022-10-19T09:04:54;26.73;;;13.73;;
31594;SDS011;18200;48.726;8.892;2022-10-19T09:08:55;23.38;;;12.73;;
31594;SDS011;18200;48.726;8.892;2022-10-19T09:12:58;20.95;;;12.90;;
31594;SDS011;18200;48.726;8.892;2022-10-19T09:17:05;24.60;;;15.10;;
31594;SDS011;18200;48.726;8.892;2022-10-19T09:21:15;23.75;;;13.45;;
31594;SDS011;18200;48.726;8.892;2022-10-19T09:25:21;20.13;;;12.35;;
31594;SDS011;18200;48.726;8.892;2022-10-19T09:33:48;24.73;;;13.43;;
31594;SDS011;18200;48.726;8.892;2022-10-19T09:37:54;23.67;;;13.73;;
31594;SDS011;18200;48.726;8.892;2022-10-19T09:41:56;23.98;;;13.68;;
31594;SDS011;18200;48.726;8.892;2022-10-19T09:46:12;23.05;;;13.00;;
31594;SDS011;18200;48.726;8.892;2022-10-19T09:54:26;28.23;;;14.55;;
31594;SDS011;18200;48.726;8.892;2022-10-19T09:58:33;25.75;;;13.00;;
31594;SDS011;18200;48.726;8.892;2022-10-19T10:02:34;19.98;;;12.55;;
31594;SDS011;18200;48.726;8.892;2022-10-19T10:06:35;20.90;;;12.98;;
31594;SDS011;18200;48.726;8.892;2022-10-19T10:10:38;18.83;;;12.05;;
31594;SDS011;18200;48.726;8.892;2022-10-19T10:14:43;21.05;;;12.77;;
31594;SDS011;18200;48.726;8.892;2022-10-19T10:22:55;22.77;;;14.02;;
31594;SDS011;18200;48.726;8.892;2022-10-19T10:26:57;25.52;;;13.77;;
31594;SDS011;18200;48.726;8.892;2022-10-19T10:35:15;24.27;;;14.20;;
31594;SDS011;18200;48.726;8.892;2022-10-19T10:39:18;28.25;;;16.42;;
31594;SDS011;18200;48.726;8.892;2022-10-19T10:43:20;24.33;;;16.05;;
31594;SDS011;18200;48.726;8.892;2022-10-19T10:47:25;22.73;;;14.77;;
31594;SDS011;18200;48.726;8.892;2022-10-19T10:55:37;22.30;;;15.57;;
31594;SDS011;18200;48.726;8.892;2022-10-19T10:59:59;20.52;;;14.13;;
31594;SDS011;18200;48.726;8.892;2022-10-19T11:04:15;24.88;;;16.05;;
31594;SDS011;18200;48.726;8.892;2022-10-19T11:08:22;27.25;;;16.50;;
31594;SDS011;18200;48.726;8.892;2022-10-19T11:12:33;23.45;;;13.80;;
31594;SDS011;18200;48.726;8.892;2022-10-19T11:16:37;21.08;;;14.30;;
31594;SDS011;18200;48.726;8.892;2022-10-19T11:20:45;18.70;;;12.80;;
31594;SDS011;18200;48.726;8.892;2022-10-19T11:25:01;19.52;;;12.82;;
31594;SDS011;18200;48.726;8.892;2022-10-19T11:42:46;8.73;;;6.50;;
31594;SDS011;18200;48.726;8.892;2022-10-19T12:12:29;8.32;;;5.32;;
31594;SDS011;18200;48.726;8.892;2022-10-19T12:16:44;5.88;;;4.60;;
31594;SDS011;18200;48.726;8.892;2022-10-19T12:24:51;6.03;;;3.90;;
31594;SDS011;18200;48.726;8.892;2022-10-19T12:28:54;6.47;;;4.50;;
31594;SDS011;18200;48.726;8.892;2022-10-19T12:37:28;5.68;;;4.70;;
31594;SDS011;18200;48.726;8.892;2022-10-19T12:41:39;5.38;;;4.43;;
31594;SDS011;18200;48.726;8.892;2022-10-19T12:49:58;5.43;;;3.70;;
31594;SDS011;18200;48.726;8.892;2022-10-19T12:54:06;6.95;;;3.75;;
31594;SDS011;18200;48.726;8.892;2022-10-19T12:58:20;5.68;;;4.43;;
31594;SDS011;18200;48.726;8.892;2022-10-19T13:02:24;5.75;;;4.35;;
31594;SDS011;18200;48.726;8.892;2022-10-19T13:10:27;6.43;;;4.50;;
31594;SDS011;18200;48.726;8.892;2022-10-19T13:31:02;10.02;;;6.40;;
31594;SDS011;18200;48.726;8.892;2022-10-19T13:35:22;10.20;;;5.82;;
31594;SDS011;18200;48.726;8.892;2022-10-19T13:39:25;11.07;;;6.88;;
31594;SDS011;18200;48.726;8.892;2022-10-19T13:43:36;11.93;;;7.43;;
31594;SDS011;18200;48.726;8.892;2022-10-19T13:47:40;10.07;;;6.93;;
31594;SDS011;18200;48.726;8.892;2022-10-19T13:51:49;11.63;;;8.30;;
31594;SDS011;18200;48.726;8.892;2022-10-19T13:55:58;9.68;;;7.20;;
31594;SDS011;18200;48.726;8.892;2022-10-19T14:13:04;10.52;;;7.38;;
31594;SDS011;18200;48.726;8.892;2022-10-19T14:17:15;11.43;;;7.80;;
31594;SDS011;18200;48.726;8.892;2022-10-19T14:21:20;10.82;;;7.85;;
31594;SDS011;18200;48.726;8.892;2022-10-19T14:25:32;7.75;;;5.78;;
31594;SDS011;18200;48.726;8.892;2022-10-19T14:29:34;9.90;;;7.18;;
31594;SDS011;18200;48.726;8.892;2022-10-19T14:33:44;12.18;;;7.50;;
31594;SDS011;18200;48.726;8.892;2022-10-19T14:37:46;13.15;;;8.43;;
31594;SDS011;18200;48.726;8.892;2022-10-19T14:41:51;13.07;;;7.90;;
31594;SDS011;18200;48.726;8.892;2022-10-19T14:50:05;11.57;;;6.93;;
31594;SDS011;18200;48.726;8.892;2022-10-19T14:54:13;8.77;;;5.95;;
31594;SDS011;18200;48.726;8.892;2022-10-19T14:58:28;9.35;;;7.80;;
31594;SDS011;18200;48.726;8.892;2022-10-19T15:02:41;8.15;;;6.68;;
31594;SDS011;18200;48.726;8.892;2022-10-19T15:06:45;9.23;;;6.40;;
31594;SDS011;18200;48.726;8.892;2022-10-19T15:10:46;8.70;;;5.18;;
31594;SDS011;18200;48.726;8.892;2022-10-19T15:14:47;14.05;;;6.65;;
31594;SDS011;18200;48.726;8.892;2022-10-19T15:18:48;8.10;;;6.35;;
31594;SDS011;18200;48.726;8.892;2022-10-19T15:22:48;11.32;;;7.30;;
31594;SDS011;18200;48.726;8.892;2022-10-19T15:26:49;9.35;;;6.88;;
31594;SDS011;18200;48.726;8.892;2022-10-19T15:30:58;9.05;;;7.20;;
31594;SDS011;18200;48.726;8.892;2022-10-19T15:35:35;11.82;;;6.75;;
31594;SDS011;18200;48.726;8.892;2022-10-19T15:39:38;10.52;;;7.93;;
31594;SDS011;18200;48.726;8.892;2022-10-19T15:43:42;13.55;;;10.23;;
31594;SDS011;18200;48.726;8.892;2022-10-19T15:48:13;12.25;;;7.13;;
31594;SDS011;18200;48.726;8.892;2022-10-19T15:52:16;7.80;;;5.80;;
31594;SDS011;18200;48.726;8.892;2022-10-19T15:56:18;8.77;;;6.68;;
31594;SDS011;18200;48.726;8.892;2022-10-19T16:00:19;9.63;;;6.20;;
31594;SDS011;18200;48.726;8.892;2022-10-19T16:04:20;8.57;;;7.18;;
31594;SDS011;18200;48.726;8.892;2022-10-19T16:08:21;9.88;;;6.43;;
31594;SDS011;18200;48.726;8.892;2022-10-19T16:12:24;10.95;;;6.53;;
31594;SDS011;18200;48.726;8.892;2022-10-19T16:16:30;10.38;;;8.63;;
31594;SDS011;18200;48.726;8.892;2022-10-19T16:20:31;12.68;;;7.22;;
31594;SDS011;18200;48.726;8.892;2022-10-19T16:24:31;8.93;;;7.22;;
31594;SDS011;18200;48.726;8.892;2022-10-19T16:28:32;12.85;;;8.82;;
31594;SDS011;18200;48.726;8.892;2022-10-19T16:32:32;12.48;;;8.13;;
31594;SDS011;18200;48.726;8.892;2022-10-19T16:36:33;13.63;;;8.80;;
31594;SDS011;18200;48.726;8.892;2022-10-19T16:40:33;8.80;;;7.05;;
31594;SDS011;18200;48.726;8.892;2022-10-19T16:44:34;8.90;;;6.63;;
31594;SDS011;18200;48.726;8.892;2022-10-19T16:48:34;9.38;;;6.55;;
31594;SDS011;18200;48.726;8.892;2022-10-19T16:52:35;7.90;;;6.07;;
31594;SDS011;18200;48.726;8.892;2022-10-19T16:56:37;13.80;;;12.02;;
31594;SDS011;18200;48.726;8.892;2022-10-19T17:00:42;10.70;;;6.60;;
31594;SDS011;18200;48.726;8.892;2022-10-19T17:04:42;14.32;;;8.52;;
31594;SDS011;18200;48.726;8.892;2022-10-19T17:08:43;14.40;;;8.80;;
31594;SDS011;18200;48.726;8.892;2022-10-19T17:12:44;32.90;;;20.42;;
31594;SDS011;18200;48.726;8.892;2022-10-19T17:16:44;31.30;;;18.08;;
31594;SDS011;18200;48.726;8.892;2022-10-19T17:20:45;16.85;;;10.35;;
31594;SDS011;18200;48.726;8.892;2022-10-19T17:24:45;11.02;;;7.80;;
31594;SDS011;18200;48.726;8.892;2022-10-19T17:28:46;9.93;;;7.20;;
31594;SDS011;18200;48.726;8.892;2022-10-19T17:32:48;12.00;;;7.10;;
31594;SDS011;18200;48.726;8.892;2022-10-19T17:36:48;11.60;;;8.30;;
31594;SDS011;18200;48.726;8.892;2022-10-19T17:40:49;11.82;;;8.77;;
31594;SDS011;18200;48.726;8.892;2022-10-19T17:44:49;14.57;;;10.68;;
31594;SDS011;18200;48.726;8.892;2022-10-19T17:48:49;13.65;;;9.20;;
31594;SDS011;18200;48.726;8.892;2022-10-19T17:52:50;12.57;;;7.85;;
31594;SDS011;18200;48.726;8.892;2022-10-19T17:56:51;12.32;;;8.20;;
31594;SDS011;18200;48.726;8.892;2022-10-19T18:00:52;12.63;;;7.88;;
31594;SDS011;18200;48.726;8.892;2022-10-19T18:04:54;10.43;;;6.40;;
31594;SDS011;18200;48.726;8.892;2022-10-19T18:08:54;9.98;;;7.88;;
31594;SDS011;18200;48.726;8.892;2022-10-19T18:12:56;16.60;;;12.13;;
31594;SDS011;18200;48.726;8.892;2022-10-19T18:16:56;10.35;;;8.32;;
31594;SDS011;18200;48.726;8.892;2022-10-19T18:20:56;13.10;;;6.85;;
31594;SDS011;18200;48.726;8.892;2022-10-19T18:24:57;9.45;;;6.35;;
31594;SDS011;18200;48.726;8.892;2022-10-19T18:28:59;9.85;;;6.95;;
31594;SDS011;18200;48.726;8.892;2022-10-19T18:33:01;13.40;;;7.65;;
31594;SDS011;18200;48.726;8.892;2022-10-19T18:37:01;15.10;;;9.60;;
31594;SDS011;18200;48.726;8.892;2022-10-19T18:41:02;20.30;;;10.15;;
31594;SDS011;18200;48.726;8.892;2022-10-19T18:45:04;17.92;;;10.10;;
31594;SDS011;18200;48.726;8.892;2022-10-19T18:49:06;14.15;;;10.35;;
31594;SDS011;18200;48.726;8.892;2022-10-19T18:53:07;14.15;;;9.65;;
31594;SDS011;18200;48.726;8.892;2022-10-19T18:57:07;22.77;;;10.95;;
31594;SDS011;18200;48.726;8.892;2022-10-19T19:01:10;16.77;;;9.98;;
31594;SDS011;18200;48.726;8.892;2022-10-19T19:05:12;25.42;;;14.60;;
31594;SDS011;18200;48.726;8.892;2022-10-19T19:09:12;23.38;;;12.45;;
31594;SDS011;18200;48.726;8.892;2022-10-19T19:13:13;15.93;;;10.48;;
31594;SDS011;18200;48.726;8.892;2022-10-19T19:17:13;19.85;;;10.40;;
31594;SDS011;18200;48.726;8.892;2022-10-19T19:21:18;17.10;;;11.15;;
31594;SDS011;18200;48.726;8.892;2022-10-19T19:25:19;13.65;;;8.98;;
31594;SDS011;18200;48.726;8.892;2022-10-19T19:29:20;13.18;;;8.95;;
31594;SDS011;18200;48.726;8.892;2022-10-19T19:33:48;16.58;;;10.00;;
31594;SDS011;18200;48.726;8.892;2022-10-19T19:37:48;15.95;;;9.48;;
31594;SDS011;18200;48.726;8.892;2022-10-19T19:41:49;20.13;;;12.40;;
31594;SDS011;18200;48.726;8.892;2022-10-19T19:45:56;15.27;;;10.30;;
31594;SDS011;18200;48.726;8.892;2022-10-19T19:49:58;16.35;;;9.60;;
31594;SDS011;18200;48.726;8.892;2022-10-19T19:53:59;15.55;;;10.63;;
31594;SDS011;18200;48.726;8.892;2022-10-19T19:57:59;14.65;;;9.77;;
31594;SDS011;18200;48.726;8.892;2022-10-19T20:01:59;17.15;;;11.15;;
31594;SDS011;18200;48.726;8.892;2022-10-19T20:06:01;18.25;;;11.02;;
31594;SDS011;18200;48.726;8.892;2022-10-19T20:10:02;14.35;;;11.10;;
31594;SDS011;18200;48.726;8.892;2022-10-19T20:14:03;15.25;;;10.50;;
31594;SDS011;18200;48.726;8.892;2022-10-19T20:18:03;15.13;;;11.27;;
31594;SDS011;18200;48.726;8.892;2022-10-19T20:22:04;15.15;;;9.55;;
31594;SDS011;18200;48.726;8.892;2022-10-19T20:26:05;13.15;;;9.05;;
31594;SDS011;18200;48.726;8.892;2022-10-19T20:30:08;13.93;;;10.38;;
31594;SDS011;18200;48.726;8.892;2022-10-19T20:34:10;18.42;;;10.43;;
31594;SDS011;18200;48.726;8.892;2022-10-19T20:38:12;14.60;;;9.48;;
31594;SDS011;18200;48.726;8.892;2022-10-19T20:42:13;12.15;;;8.48;;
31594;SDS011;18200;48.726;8.892;2022-10-19T20:46:15;14.23;;;10.38;;
31594;SDS011;18200;48.726;8.892;2022-10-19T20:50:17;16.27;;;10.30;;
31594;SDS011;18200;48.726;8.892;2022-10-19T20:54:18;18.08;;;11.13;;
31594;SDS011;18200;48.726;8.892;2022-10-19T20:58:19;17.88;;;11.23;;
31594;SDS011;18200;48.726;8.892;2022-10-19T21:02:19;15.75;;;10.68;;
31594;SDS011;18200;48.726;8.892;2022-10-19T21:06:20;20.63;;;12.73;;
31594;SDS011;18200;48.726;8.892;2022-10-19T21:10:22;20.15;;;11.15;;
31594;SDS011;18200;48.726;8.892;2022-10-19T21:14:24;17.33;;;11.27;;
31594;SDS011;18200;48.726;8.892;2022-10-19T21:18:26;19.33;;;12.05;;
31594;SDS011;18200;48.726;8.892;2022-10-19T21:22:26;20.08;;;11.07;;
31594;SDS011;18200;48.726;8.892;2022-10-19T21:26:27;17.40;;;10.30;;
31594;SDS011;18200;48.726;8.892;2022-10-19T21:30:27;18.95;;;11.07;;
31594;SDS011;18200;48.726;8.892;2022-10-19T21:34:28;20.38;;;11.95;;
31594;SDS011;18200;48.726;8.892;2022-10-19T21:38:29;15.05;;;10.48;;
31594;SDS011;18200;48.726;8.892;2022-10-19T21:42:30;13.60;;;10.55;;
31594;SDS011;18200;48.726;8.892;2022-10-19T21:46:30;14.07;;;9.50;;
31594;SDS011;18200;48.726;8.892;2022-10-19T21:50:31;16.73;;;10.77;;
31594;SDS011;18200;48.726;8.892;2022-10-19T21:54:31;22.08;;;14.15;;
31594;SDS011;18200;48.726;8.892;2022-10-19T21:58:31;20.45;;;12.45;;
31594;SDS011;18200;48.726;8.892;2022-10-19T22:02:32;15.73;;;11.57;;
31594;SDS011;18200;48.726;8.892;2022-10-19T22:06:33;19.08;;;10.88;;
31594;SDS011;18200;48.726;8.892;2022-10-19T22:10:36;21.30;;;11.55;;
31594;SDS011;18200;48.726;8.892;2022-10-19T22:14:36;21.15;;;11.93;;
31594;SDS011;18200;48.726;8.892;2022-10-19T22:18:37;17.83;;;11.85;;
31594;SDS011;18200;48.726;8.892;2022-10-19T22:22:37;20.63;;;10.60;;
31594;SDS011;18200;48.726;8.892;2022-10-19T22:26:39;17.40;;;12.55;;
31594;SDS011;18200;48.726;8.892;2022-10-19T22:30:41;15.02;;;10.52;;
31594;SDS011;18200;48.726;8.892;2022-10-19T22:34:44;18.30;;;10.57;;
31594;SDS011;18200;48.726;8.892;2022-10-19T22:38:44;17.40;;;10.60;;
31594;SDS011;18200;48.726;8.892;2022-10-19T22:42:45;17.08;;;11.20;;
31594;SDS011;18200;48.726;8.892;2022-10-19T22:46:45;15.60;;;9.88;;
31594;SDS011;18200;48.726;8.892;2022-10-19T22:50:45;14.50;;;9.02;;
31594;SDS011;18200;48.726;8.892;2022-10-19T22:54:46;19.42;;;12.30;;
31594;SDS011;18200;48.726;8.892;2022-10-19T22:58:46;15.40;;;11.48;;
31594;SDS011;18200;48.726;8.892;2022-10-19T23:02:47;20.88;;;11.48;;
31594;SDS011;18200;48.726;8.892;2022-10-19T23:06:47;17.25;;;11.85;;
31594;SDS011;18200;48.726;8.892;2022-10-19T23:10:47;16.05;;;10.15;;
31594;SDS011;18200;48.726;8.892;2022-10-19T23:14:48;19.58;;;13.35;;
31594;SDS011;18200;48.726;8.892;2022-10-19T23:18:48;23.27;;;14.70;;
31594;SDS011;18200;48.726;8.892;2022-10-19T23:22:49;21.88;;;13.43;;
31594;SDS011;18200;48.726;8.892;2022-10-19T23:26:49;18.55;;;12.38;;
31594;SDS011;18200;48.726;8.892;2022-10-19T23:30:49;21.85;;;13.77;;
31594;SDS011;18200;48.726;8.892;2022-10-19T23:34:50;25.42;;;14.35;;
31594;SDS011;18200;48.726;8.892;2022-10-19T23:38:51;21.02;;;13.85;;
31594;SDS011;18200;48.726;8.892;2022-10-19T23:42:51;24.83;;;13.73;;
31594;SDS011;18200;48.726;8.892;2022-10-19T23:46:52;18.13;;;11.80;;
31594;SDS011;18200;48.726;8.892;2022-10-19T23:51:03;18.38;;;13.43;;
31594;SDS011;18200;48.726;8.892;2022-10-19T23:55:06;20.65;;;12.55;;
31594;SDS011;18200;48.726;8.892;2022-10-19T23:59:07;19.88;;;13.45;;
